Time;durP1;ratioP1;P1;durP2;ratioP2;P2;SDS_P1;SDS_P2;PMS_P1;PMS_P2;Temp;Humidity;BMP_temperature;BMP_pressure;BME280_temperature;BME280_humidity;BME280_pressure;Samples;Min_cycle;Max_cycle;Signal;HPM_P1;HPM_P2
2021/07/22 00:01:16;;;;;;;18.33;10.18;;;;;;;11.97;100.00;101309.22;4846719;29;20097;-77
2021/07/22 00:03:41;;;;;;;15.98;10.95;;;;;;;12.03;100.00;101311.75;4846799;29;20041;-77
2021/07/22 00:06:06;;;;;;;15.43;10.07;;;;;;;12.02;100.00;101312.66;4864225;29;20033;-77
2021/07/22 00:08:31;;;;;;;15.50;10.38;;;;;;;11.98;100.00;101309.22;4863436;29;20041;-77
2021/07/22 00:10:57;;;;;;;15.00;10.30;;;;;;;11.98;100.00;101304.03;4846911;29;20386;-78
2021/07/22 00:13:22;;;;;;;17.17;11.05;;;;;;;11.97;100.00;101302.28;4863755;29;20033;-78
2021/07/22 00:15:47;;;;;;;18.88;11.50;;;;;;;11.99;100.00;101304.88;4863193;29;20026;-78
2021/07/22 00:18:12;;;;;;;14.88;10.10;;;;;;;11.95;100.00;101311.00;4846298;29;20022;-77
2021/07/22 00:20:38;;;;;;;16.33;10.40;;;;;;;11.94;100.00;101304.91;4846806;29;20037;-77
2021/07/22 00:23:03;;;;;;;21.80;11.00;;;;;;;11.87;100.00;101310.22;4863079;29;20402;-78
2021/07/22 00:25:28;;;;;;;19.65;10.52;;;;;;;11.90;100.00;101299.78;4846580;29;20479;-78
2021/07/22 00:27:53;;;;;;;17.75;10.90;;;;;;;11.93;100.00;101312.75;4863031;29;20026;-77
2021/07/22 00:30:19;;;;;;;14.70;10.32;;;;;;;11.85;100.00;101307.63;4863120;29;20029;-77
2021/07/22 00:32:44;;;;;;;16.30;10.35;;;;;;;11.83;100.00;101311.13;4863057;29;20032;-78
2021/07/22 00:35:10;;;;;;;16.02;10.75;;;;;;;11.84;100.00;101305.03;4846670;29;20033;-77
2021/07/22 00:37:35;;;;;;;15.80;11.02;;;;;;;11.83;100.00;101292.94;4863044;29;20044;-77
2021/07/22 00:40:00;;;;;;;16.48;10.55;;;;;;;11.79;100.00;101292.06;4846445;29;20033;-77
2021/07/22 00:42:26;;;;;;;18.02;10.27;;;;;;;11.77;100.00;101298.19;4846622;29;20037;-77
2021/07/22 00:44:51;;;;;;;19.20;10.45;;;;;;;11.77;100.00;101293.00;4846265;29;20474;-77
2021/07/22 00:47:16;;;;;;;18.20;10.45;;;;;;;11.79;100.00;101291.22;4862716;29;20109;-77
2021/07/22 00:49:41;;;;;;;18.27;11.00;;;;;;;11.82;100.00;101293.78;4862769;29;20514;-77
2021/07/22 00:52:07;;;;;;;16.42;10.82;;;;;;;11.83;100.00;101298.13;4846231;29;20487;-77
2021/07/22 00:54:32;;;;;;;15.48;10.57;;;;;;;11.91;100.00;101285.91;4862766;29;20032;-77
2021/07/22 00:56:57;;;;;;;15.57;10.05;;;;;;;11.96;100.00;101289.31;4846467;29;20052;-77
2021/07/22 00:59:22;;;;;;;16.42;10.63;;;;;;;11.95;100.00;101292.81;4845351;29;20033;-77
2021/07/22 01:01:48;;;;;;;15.30;9.40;;;;;;;11.95;100.00;101291.06;4846877;29;20477;-77
2021/07/22 01:04:13;;;;;;;14.93;10.57;;;;;;;11.91;100.00;101288.50;4846492;29;20029;-77
2021/07/22 01:06:38;;;;;;;15.73;10.77;;;;;;;11.96;100.00;101291.91;4846474;29;20029;-77
2021/07/22 01:09:03;;;;;;;19.48;10.27;;;;;;;12.00;100.00;101291.00;4862989;29;20026;-77
2021/07/22 01:11:29;;;;;;;17.13;10.23;;;;;;;12.06;100.00;101285.72;4846756;29;20025;-77
2021/07/22 01:13:55;;;;;;;18.25;9.98;;;;;;;12.02;100.00;101283.19;4846036;29;20457;-77
2021/07/22 01:16:20;;;;;;;16.50;9.85;;;;;;;12.05;100.00;101284.00;4847295;29;20113;-79
2021/07/22 01:18:46;;;;;;;15.95;9.77;;;;;;;12.02;100.00;101284.03;4863210;29;20474;-78
2021/07/22 01:21:11;;;;;;;16.73;10.45;;;;;;;12.06;100.00;101282.25;4846931;29;20112;-78
2021/07/22 01:23:36;;;;;;;14.60;10.23;;;;;;;12.15;100.00;101285.59;4862982;29;20064;-79
2021/07/22 01:26:02;;;;;;;18.17;9.88;;;;;;;12.18;100.00;101289.91;4863520;29;20090;-79
2021/07/22 01:28:28;;;;;;;18.77;10.85;;;;;;;12.11;100.00;101270.94;4863162;29;20402;-77
2021/07/22 01:30:53;;;;;;;16.38;10.60;;;;;;;12.27;100.00;101279.38;4846679;29;20507;-79
2021/07/22 01:33:18;;;;;;;20.50;11.27;;;;;;;12.24;100.00;101278.56;4846894;29;20021;-78
2021/07/22 01:35:44;;;;;;;16.50;10.15;;;;;;;12.23;100.00;101274.25;4847183;29;20025;-78
2021/07/22 01:38:09;;;;;;;16.13;9.63;;;;;;;12.18;100.00;101272.56;4862467;29;20098;-78
2021/07/22 01:40:34;;;;;;;14.23;9.88;;;;;;;12.16;100.00;101276.06;4847059;29;20435;-79
2021/07/22 01:43:04;;;;;;;16.77;10.55;;;;;;;12.09;100.00;101274.41;4846115;29;20128;-78
2021/07/22 01:45:29;;;;;;;15.13;10.10;;;;;;;12.01;100.00;101276.25;4863184;29;20414;-79
2021/07/22 01:47:56;;;;;;;17.65;10.20;;;;;;;11.92;100.00;101278.09;4846391;29;20033;-79
2021/07/22 01:50:22;;;;;;;17.38;10.07;;;;;;;11.91;100.00;101272.91;4863573;29;20033;-79
2021/07/22 01:52:47;;;;;;;15.90;10.35;;;;;;;11.85;100.00;101268.63;4862842;29;20112;-78
2021/07/22 01:55:12;;;;;;;16.48;10.85;;;;;;;11.75;100.00;101267.00;4845645;29;20030;-78
2021/07/22 01:57:37;;;;;;;17.20;10.48;;;;;;;11.74;100.00;101273.94;4862887;29;20030;-78
2021/07/22 02:00:06;;;;;;;14.65;9.70;;;;;;;11.68;100.00;101266.22;4846035;29;20025;-79
2021/07/22 02:02:32;;;;;;;17.33;9.70;;;;;;;11.63;100.00;101268.00;4845222;29;20029;-78
2021/07/22 02:04:58;;;;;;;14.70;9.85;;;;;;;11.54;100.00;101278.50;4845123;29;20021;-77
2021/07/22 02:07:24;;;;;;;15.85;10.02;;;;;;;11.45;100.00;101273.38;4861745;29;20025;-77
2021/07/22 02:09:49;;;;;;;16.70;9.13;;;;;;;11.46;100.00;101273.41;4861743;29;20088;-77
2021/07/22 02:12:14;;;;;;;15.00;9.48;;;;;;;11.48;100.00;101276.84;4844736;29;20150;-77
2021/07/22 02:14:40;;;;;;;16.38;9.73;;;;;;;11.47;100.00;101269.06;4844299;29;20032;-77
2021/07/22 02:17:05;;;;;;;16.58;10.18;;;;;;;11.39;100.00;101270.84;4844736;29;20033;-77
2021/07/22 02:19:30;;;;;;;15.27;9.80;;;;;;;11.32;100.00;101277.84;4844470;29;20043;-77
2021/07/22 02:21:56;;;;;;;17.52;10.18;;;;;;;11.39;100.00;101278.66;4844241;29;20041;-77
2021/07/22 02:24:21;;;;;;;18.25;10.13;;;;;;;11.29;100.00;101278.75;4844302;29;20025;-77
2021/07/22 02:26:46;;;;;;;14.23;9.57;;;;;;;11.25;100.00;101274.47;4844243;29;20044;-77
2021/07/22 02:29:11;;;;;;;15.77;9.52;;;;;;;11.17;100.00;101265.88;4844519;29;20069;-77
2021/07/22 02:31:37;;;;;;;15.32;9.77;;;;;;;11.15;100.00;101270.25;4844194;29;20116;-77
2021/07/22 02:34:03;;;;;;;18.95;9.77;;;;;;;11.15;100.00;101270.25;4844288;29;20037;-77
2021/07/22 02:36:28;;;;;;;13.82;9.07;;;;;;;11.13;100.00;101256.41;4844256;29;20026;-77
2021/07/22 02:38:53;;;;;;;19.15;9.07;;;;;;;11.04;100.00;101257.34;4844047;29;20081;-77
2021/07/22 02:41:19;;;;;;;15.27;9.30;;;;;;;11.12;100.00;101267.66;4844037;29;20121;-77
2021/07/22 02:43:44;;;;;;;16.05;8.65;;;;;;;11.10;100.00;101268.56;4860740;29;20029;-77
2021/07/22 02:46:12;;;;;;;16.05;9.10;;;;;;;11.03;100.00;101262.56;4844179;29;20594;-77
2021/07/22 02:48:38;;;;;;;17.33;9.98;;;;;;;11.13;100.00;101266.78;4860645;29;20061;-77
2021/07/22 02:51:05;;;;;;;17.70;9.02;;;;;;;11.06;100.00;101270.31;4844079;29;20119;-77
2021/07/22 02:53:31;;;;;;;16.60;9.13;;;;;;;10.97;100.00;101278.19;4843978;29;20030;-77
2021/07/22 02:56:00;;;;;;;14.90;9.15;;;;;;;10.85;100.00;101286.06;4843808;29;20036;-77
2021/07/22 02:58:26;;;;;;;16.35;8.68;;;;;;;10.82;100.00;101282.63;4844332;29;20414;-77
2021/07/22 03:00:52;;;;;;;13.05;8.15;;;;;;;10.80;100.00;101280.91;4844169;29;20029;-77
2021/07/22 03:03:17;;;;;;;13.50;8.77;;;;;;;10.78;100.00;101278.31;4843768;29;20367;-77
2021/07/22 03:05:43;;;;;;;12.85;8.43;;;;;;;10.74;100.00;101278.34;4843960;29;20431;-77
2021/07/22 03:08:08;;;;;;;14.82;9.15;;;;;;;10.82;100.00;101284.34;4860413;29;20033;-77
2021/07/22 03:10:33;;;;;;;13.65;9.57;;;;;;;10.81;100.00;101280.91;4860368;29;20112;-77
2021/07/22 03:12:59;;;;;;;15.10;9.52;;;;;;;10.80;100.00;101281.75;4847189;29;20108;-77
2021/07/22 03:15:24;;;;;;;17.58;8.93;;;;;;;10.80;100.00;101279.16;4863856;29;20086;-77
2021/07/22 03:17:49;;;;;;;12.88;8.23;;;;;;;10.78;100.00;101280.06;4863776;29;20026;-77
2021/07/22 03:20:15;;;;;;;16.27;8.98;;;;;;;10.74;100.00;101276.59;4847281;29;20025;-77
2021/07/22 03:22:40;;;;;;;13.55;8.55;;;;;;;10.73;100.00;101289.59;4847209;29;20041;-77
2021/07/22 03:25:06;;;;;;;13.98;8.98;;;;;;;10.59;100.00;101282.78;4863734;29;20058;-77
2021/07/22 03:27:32;;;;;;;12.73;8.02;;;;;;;10.72;100.00;101282.72;4846996;29;20036;-77
2021/07/22 03:29:57;;;;;;;13.68;8.45;;;;;;;10.80;100.00;101286.09;4847069;29;20112;-77
2021/07/22 03:32:22;;;;;;;11.50;7.55;;;;;;;10.83;100.00;101283.47;4847396;29;20029;-77
2021/07/22 03:34:48;;;;;;;16.40;8.43;;;;;;;10.85;100.00;101288.66;4847129;29;20483;-77
2021/07/22 03:37:14;;;;;;;14.68;7.97;;;;;;;10.96;100.00;101284.22;4846840;29;20033;-77
2021/07/22 03:39:40;;;;;;;13.55;8.88;;;;;;;11.02;100.00;101272.09;4863183;29;20057;-77
2021/07/22 03:42:05;;;;;;;15.70;9.10;;;;;;;11.07;100.00;101275.47;4846770;29;20432;-77
2021/07/22 03:44:31;;;;;;;16.98;8.85;;;;;;;11.18;100.00;101283.19;4846733;29;20021;-77
2021/07/22 03:46:56;;;;;;;14.88;8.65;;;;;;;11.24;100.00;101283.13;4846747;29;20025;-77
2021/07/22 03:49:21;;;;;;;13.10;8.20;;;;;;;11.27;100.00;101277.06;4846829;29;20040;-77
2021/07/22 03:51:46;;;;;;;16.35;9.07;;;;;;;11.27;100.00;101279.66;4846583;29;20396;-77
2021/07/22 03:54:14;;;;;;;14.00;8.25;;;;;;;11.33;100.00;101282.19;4863401;29;20061;-77
2021/07/22 03:56:39;;;;;;;13.98;8.38;;;;;;;11.40;100.00;101275.19;4863030;29;20037;-77
2021/07/22 03:59:04;;;;;;;14.63;8.32;;;;;;;11.40;100.00;101283.00;4846447;29;20402;-77
2021/07/22 04:01:29;;;;;;;15.02;8.55;;;;;;;11.45;100.00;101268.19;4863049;29;20044;-77
2021/07/22 04:03:55;;;;;;;15.50;9.20;;;;;;;11.50;100.00;101277.66;4846760;29;20094;-77
2021/07/22 04:06:21;;;;;;;13.82;8.63;;;;;;;11.55;100.00;101280.25;4846712;29;20026;-77
2021/07/22 04:08:46;;;;;;;13.45;8.95;;;;;;;11.65;100.00;101275.78;4863196;29;20021;-77
2021/07/22 04:11:11;;;;;;;13.52;8.90;;;;;;;11.75;100.00;101288.66;4847778;29;20566;-77
2021/07/22 04:13:37;;;;;;;15.50;8.57;;;;;;;11.80;100.00;101280.81;4864013;29;20036;-77
2021/07/22 04:16:03;;;;;;;15.90;9.25;;;;;;;11.84;100.00;101277.28;4864303;29;20026;-77
2021/07/22 04:18:29;;;;;;;12.85;9.13;;;;;;;11.85;100.00;101270.38;4847386;29;20131;-77
2021/07/22 04:20:54;;;;;;;14.55;8.48;;;;;;;11.87;100.00;101276.44;4847901;29;20057;-77
2021/07/22 04:23:19;;;;;;;14.35;8.60;;;;;;;12.02;100.00;101278.00;4846870;29;20479;-77
2021/07/22 04:25:46;;;;;;;14.95;8.35;;;;;;;12.02;100.00;101281.44;4846486;29;20033;-77
2021/07/22 04:28:11;;;;;;;14.30;8.23;;;;;;;12.01;100.00;101276.25;4846265;29;20543;-77
2021/07/22 04:30:37;;;;;;;16.67;9.40;;;;;;;12.09;100.00;101272.69;4846682;29;20127;-77
2021/07/22 04:33:03;;;;;;;15.23;8.25;;;;;;;12.16;100.00;101282.13;4862746;29;20027;-77
2021/07/22 04:35:28;;;;;;;13.27;8.82;;;;;;;12.27;100.00;101288.94;4847130;29;20363;-77
2021/07/22 04:37:53;;;;;;;14.20;9.70;;;;;;;12.40;100.00;101272.25;4846796;29;20093;-77
2021/07/22 04:40:18;;;;;;;15.70;9.20;;;;;;;12.57;100.00;101272.88;4869029;24;20053;-87
2021/07/22 04:42:44;;;;;;;14.77;8.00;;;;;;;12.40;100.00;101267.06;4847018;29;20025;-87
2021/07/22 04:45:10;;;;;;;12.43;8.32;;;;;;;12.42;100.00;101268.75;4864469;29;20034;-87
2021/07/22 04:47:35;;;;;;;15.70;8.93;;;;;;;12.48;100.00;101267.81;4847370;29;20025;-87
2021/07/22 04:50:00;;;;;;;17.70;8.95;;;;;;;12.48;100.00;101274.78;4847186;29;20112;-87
2021/07/22 04:52:25;;;;;;;13.55;8.68;;;;;;;12.47;100.00;101267.81;4847369;29;20065;-87
2021/07/22 04:54:51;;;;;;;14.30;8.80;;;;;;;12.49;100.00;101273.88;4848026;29;20041;-87
2021/07/22 04:57:16;;;;;;;16.80;8.57;;;;;;;12.58;100.00;101272.00;4846790;29;20498;-87
2021/07/22 04:59:41;;;;;;;15.00;9.07;;;;;;;12.66;100.00;101269.28;4846806;29;20029;-87
2021/07/22 05:02:06;;;;;;;13.77;8.32;;;;;;;12.79;100.00;101275.16;4846643;29;20025;-87
2021/07/22 05:04:32;;;;;;;13.75;8.35;;;;;;;12.83;100.00;101274.22;4846208;29;20085;-87
2021/07/22 05:06:57;;;;;;;14.70;8.35;;;;;;;13.01;100.00;101273.06;4846513;29;20028;-88
2021/07/22 05:09:23;;;;;;;15.27;7.93;;;;;;;13.59;100.00;101278.13;4845831;29;20116;-87
2021/07/22 05:11:48;;;;;;;14.18;7.85;;;;;;;13.83;100.00;101278.53;4845945;29;20026;-88
2021/07/22 05:14:13;;;;;;;15.88;8.98;;;;;;;14.26;100.00;101281.09;4846040;29;20029;-88
2021/07/22 05:16:38;;;;;;;18.25;9.30;;;;;;;14.77;100.00;101282.56;4845753;29;20036;-88
2021/07/22 05:19:03;;;;;;;15.30;8.60;;;;;;;14.72;100.00;101285.31;4845590;29;20034;-88
2021/07/22 05:21:29;;;;;;;15.20;8.55;;;;;;;14.99;100.00;101277.66;4845583;29;20462;-88
2021/07/22 05:23:54;;;;;;;15.63;9.00;;;;;;;15.75;100.00;101285.28;4845504;29;20025;-88
2021/07/22 05:26:19;;;;;;;12.13;7.95;;;;;;;16.02;100.00;101286.25;4845391;29;20037;-88
2021/07/22 05:28:45;;;;;;;16.48;8.90;;;;;;;16.00;100.00;101285.44;4845332;29;20029;-88
2021/07/22 05:31:11;;;;;;;13.10;8.13;;;;;;;15.87;100.00;101279.69;4845661;29;20029;-88
2021/07/22 05:33:38;;;;;;;13.18;8.82;;;;;;;16.55;100.00;101273.28;4845089;29;20037;-88
2021/07/22 05:36:05;;;;;;;15.02;8.38;;;;;;;17.00;100.00;101269.28;4845416;29;20025;-88
2021/07/22 05:38:32;;;;;;;17.40;9.00;;;;;;;16.64;100.00;101276.53;4845836;29;20124;-88
2021/07/22 05:41:02;;;;;;;15.88;8.93;;;;;;;16.84;100.00;101279.41;4845286;29;20045;-88
2021/07/22 05:43:27;;;;;;;15.18;8.50;;;;;;;17.10;100.00;101270.66;4845842;29;20033;-88
2021/07/22 05:45:53;;;;;;;13.05;8.55;;;;;;;17.44;97.40;101270.34;4851907;29;20025;-88
2021/07/22 05:48:19;;;;;;;12.25;7.82;;;;;;;17.87;93.53;101276.69;4848665;29;20021;-89
2021/07/22 05:50:44;;;;;;;13.13;8.43;;;;;;;17.44;96.94;101272.97;4845958;29;20032;-88
2021/07/22 05:53:09;;;;;;;13.63;7.93;;;;;;;17.76;94.86;101276.19;4845639;29;20037;-88
2021/07/22 05:55:34;;;;;;;12.48;8.02;;;;;;;17.22;99.03;101270.25;4845156;29;20061;-89
2021/07/22 05:58:00;;;;;;;12.05;7.70;;;;;;;17.36;98.69;101282.00;4845180;29;20037;-88
2021/07/22 06:00:25;;;;;;;16.58;8.23;;;;;;;17.58;98.21;101275.13;4844807;29;20483;-88
2021/07/22 06:02:50;;;;;;;13.38;8.43;;;;;;;16.86;100.00;101276.72;4844937;29;20113;-89
2021/07/22 06:05:15;;;;;;;13.60;8.30;;;;;;;16.77;100.00;101268.25;4845107;29;20041;-89
2021/07/22 06:07:41;;;;;;;14.32;7.75;;;;;;;17.51;97.96;101275.38;4845488;29;20557;-89
2021/07/22 06:10:06;;;;;;;10.68;7.00;;;;;;;17.75;96.59;101261.38;4844778;29;20057;-89
2021/07/22 06:12:32;;;;;;;14.20;7.70;;;;;;;17.90;87.97;101266.09;4844787;29;20112;-90
2021/07/22 06:14:57;;;;;;;13.05;7.65;;;;;;;18.17;89.11;101264.19;4845735;29;20029;-89
2021/07/22 06:17:23;;;;;;;14.68;7.57;;;;;;;18.38;91.34;101259.00;4845564;29;20021;-88
2021/07/22 06:19:48;;;;;;;13.00;7.90;;;;;;;18.10;90.48;101267.09;4845580;29;20054;-88
2021/07/22 06:22:13;;;;;;;12.75;7.72;;;;;;;17.66;93.60;101259.94;4845733;29;20129;-88
2021/07/22 06:24:39;;;;;;;16.23;8.10;;;;;;;16.48;94.57;101268.31;4861759;29;20479;-89
2021/07/22 06:27:04;;;;;;;13.77;7.17;;;;;;;17.21;91.55;101259.78;4845315;29;20026;-89
2021/07/22 06:29:30;;;;;;;13.50;6.13;;;;;;;18.06;83.50;101270.75;4845406;29;20285;-89
2021/07/22 06:31:55;;;;;;;11.10;5.80;;;;;;;18.09;80.73;101274.13;4845609;29;20025;-88
2021/07/22 06:34:21;;;;;;;8.60;5.18;;;;;;;17.51;81.09;101264.88;4845960;29;20036;-89
2021/07/22 06:36:46;;;;;;;11.60;5.47;;;;;;;17.58;79.73;101266.38;4845385;29;20040;-89
2021/07/22 06:39:11;;;;;;;12.10;5.07;;;;;;;18.70;79.81;101265.59;4845141;29;20277;-89
2021/07/22 06:41:36;;;;;;;11.43;5.60;;;;;;;18.85;80.34;101258.91;4845109;29;20029;-89
2021/07/22 06:44:02;;;;;;;14.17;5.60;;;;;;;17.46;83.49;101262.44;4845740;29;20483;-88
2021/07/22 06:46:27;;;;;;;11.30;5.15;;;;;;;18.31;79.10;101262.78;4847195;29;20285;-89
2021/07/22 06:48:54;;;;;;;8.93;4.93;;;;;;;17.40;82.62;101268.75;4849401;29;20081;-89
2021/07/22 06:51:20;;;;;;;10.02;4.50;;;;;;;17.20;85.80;101265.97;4849109;29;20026;-89
2021/07/22 06:53:45;;;;;;;12.60;4.70;;;;;;;18.08;83.25;101261.06;4849456;29;20033;-89
2021/07/22 06:56:11;;;;;;;10.18;4.35;;;;;;;18.72;78.54;101273.41;4849389;29;20044;-88
2021/07/22 06:58:36;;;;;;;10.65;4.00;;;;;;;18.05;80.72;101277.78;4849022;29;20088;-89
2021/07/22 07:01:01;;;;;;;8.10;4.20;;;;;;;18.63;76.83;101277.28;4849565;29;20513;-89
2021/07/22 07:03:27;;;;;;;7.45;3.78;;;;;;;18.43;78.86;101275.44;4849360;29;20057;-89
2021/07/22 07:05:52;;;;;;;10.85;4.70;;;;;;;19.54;71.77;101275.19;4854260;29;20036;-90
2021/07/22 07:08:18;;;;;;;11.98;4.43;;;;;;;19.50;72.30;101278.91;4854581;29;20025;-89
2021/07/22 07:10:43;;;;;;;11.50;4.60;;;;;;;17.91;77.06;101277.44;4849981;29;20039;-87
2021/07/22 07:13:08;;;;;;;8.97;3.87;;;;;;;18.28;75.68;101273.41;4849956;29;20025;-88
2021/07/22 07:15:33;;;;;;;8.63;4.00;;;;;;;17.60;78.65;101280.28;4850467;29;20284;-88
2021/07/22 07:18:03;;;;;;;11.10;4.47;;;;;;;19.94;71.53;101283.13;4849840;29;20302;-89
2021/07/22 07:20:29;;;;;;;11.65;4.35;;;;;;;19.11;70.47;101270.94;4851406;29;20034;-88
2021/07/22 07:22:56;;;;;;;10.63;4.28;;;;;;;18.71;73.73;101276.97;4851401;29;20136;-88
2021/07/22 07:25:21;;;;;;;9.23;4.70;;;;;;;18.29;74.38;101281.25;4851915;29;20034;-88
2021/07/22 07:27:47;;;;;;;10.32;3.95;;;;;;;18.17;74.66;101277.31;4850104;29;20431;-88
2021/07/22 07:30:13;;;;;;;9.60;4.15;;;;;;;18.43;74.11;101275.44;4848924;29;20454;-87
2021/07/22 07:32:38;;;;;;;8.27;4.20;;;;;;;18.03;77.62;101278.75;4848773;29;20037;-88
2021/07/22 07:35:04;;;;;;;7.45;3.92;;;;;;;18.01;79.95;101276.19;4866064;29;20527;-87
2021/07/22 07:37:30;;;;;;;9.45;3.28;;;;;;;18.66;75.10;101278.91;4851864;29;20052;-87
2021/07/22 07:39:55;;;;;;;10.20;3.42;;;;;;;20.59;65.25;101278.34;4865309;29;20041;-86
2021/07/22 07:42:21;;;;;;;11.50;4.45;;;;;;;20.87;65.75;101281.34;4847742;29;20029;-86
2021/07/22 07:44:46;;;;;;;7.75;3.20;;;;;;;21.87;61.91;101272.72;4831982;29;20037;-85
2021/07/22 07:47:11;;;;;;;7.28;3.40;;;;;;;22.67;57.66;101270.00;4847247;29;20062;-85
2021/07/22 07:49:36;;;;;;;7.22;3.13;;;;;;;19.93;65.16;101284.06;4847003;29;20030;-85
2021/07/22 07:52:02;;;;;;;8.93;3.28;;;;;;;19.76;67.20;101288.28;4847031;29;20479;-85
2021/07/22 07:54:27;;;;;;;12.82;3.60;;;;;;;19.72;68.09;101284.09;4847246;29;20030;-85
2021/07/22 07:56:52;;;;;;;6.82;3.40;;;;;;;19.01;69.11;101286.25;4847009;29;20058;-85
2021/07/22 07:59:18;;;;;;;7.60;3.60;;;;;;;19.04;72.43;101286.13;4847082;29;20025;-85
2021/07/22 08:01:43;;;;;;;8.10;3.75;;;;;;;19.22;71.88;101291.53;4846971;29;20474;-85
2021/07/22 08:04:10;;;;;;;8.15;3.53;;;;;;;20.13;68.82;101291.03;4847412;29;20399;-85
2021/07/22 08:06:35;;;;;;;8.38;3.80;;;;;;;20.62;64.29;101281.66;4846940;29;20044;-85
2021/07/22 08:09:00;;;;;;;10.40;3.70;;;;;;;20.16;67.49;101285.59;4863570;29;20037;-85
2021/07/22 08:11:25;;;;;;;9.63;3.55;;;;;;;20.00;65.69;101286.31;4846796;29;20026;-85
2021/07/22 08:13:51;;;;;;;7.80;4.13;;;;;;;19.31;69.43;101285.88;4846803;29;20041;-85
2021/07/22 08:16:17;;;;;;;9.90;3.90;;;;;;;18.85;71.85;101280.78;4846969;29;20689;-85
2021/07/22 08:18:45;;;;;;;7.32;3.28;;;;;;;18.48;74.41;101273.50;4863829;29;20285;-85
2021/07/22 08:21:11;;;;;;;11.05;4.30;;;;;;;18.63;74.17;101283.41;4846918;29;20033;-85
2021/07/22 08:23:36;;;;;;;9.05;3.78;;;;;;;19.42;72.12;101275.72;4846691;29;20089;-85
2021/07/22 08:26:01;;;;;;;8.73;4.10;;;;;;;18.85;72.53;101277.31;4846716;29;20061;-85
2021/07/22 08:28:27;;;;;;;10.02;3.88;;;;;;;20.69;69.58;101271.72;4846726;29;20058;-85
2021/07/22 08:30:52;;;;;;;11.07;4.60;;;;;;;20.13;67.46;101269.94;4863467;29;20379;-85
2021/07/22 08:33:17;;;;;;;9.33;3.90;;;;;;;21.06;66.66;101270.72;4847620;29;20026;-85
2021/07/22 08:35:42;;;;;;;10.90;3.92;;;;;;;22.82;61.03;101278.00;4846547;29;20294;-85
2021/07/22 08:38:11;;;;;;;9.27;3.85;;;;;;;23.33;57.99;101273.22;4846613;29;20047;-85
2021/07/22 08:40:40;;;;;;;11.15;4.10;;;;;;;21.49;59.83;101268.53;4862872;29;20056;-85
2021/07/22 08:43:06;;;;;;;6.25;3.50;;;;;;;20.31;66.15;101260.31;4863222;29;20029;-85
2021/07/22 08:45:31;;;;;;;10.63;3.72;;;;;;;19.49;69.84;101266.66;4846359;29;20124;-85
2021/07/22 08:47:57;;;;;;;8.23;3.90;;;;;;;19.10;71.48;101263.97;4846738;29;20029;-85
2021/07/22 08:50:22;;;;;;;10.20;3.70;;;;;;;18.71;75.39;101266.44;4862900;29;20104;-85
2021/07/22 08:52:47;;;;;;;7.40;3.13;;;;;;;18.84;76.50;101267.69;4846844;29;20463;-85
2021/07/22 08:55:13;;;;;;;9.82;3.85;;;;;;;18.90;73.76;101259.53;4846281;29;20032;-85
2021/07/22 08:57:40;;;;;;;6.63;3.63;;;;;;;18.89;73.97;101265.72;4863113;29;20502;-85
2021/07/22 09:00:07;;;;;;;7.00;3.50;;;;;;;18.53;73.45;101268.91;4851658;29;20030;-84
2021/07/22 09:02:33;;;;;;;8.40;3.90;;;;;;;18.81;72.87;101271.31;4848890;29;20049;-84
2021/07/22 09:05:00;;;;;;;8.50;3.53;;;;;;;18.74;74.46;101269.00;4863671;29;20029;-84
2021/07/22 09:07:27;;;;;;;8.35;3.90;;;;;;;18.73;72.91;101262.03;4846617;29;20029;-85
2021/07/22 09:10:04;;;;;;;8.23;3.30;;;;;;;19.74;69.68;101268.25;4845640;29;20398;-85
2021/07/22 09:12:36;;;;;;;7.03;3.83;;;;;;;20.16;67.01;101275.06;4846041;29;20113;-85
2021/07/22 09:15:03;;;;;;;6.82;3.22;;;;;;;19.82;69.19;101260.81;4846128;29;20033;-85
2021/07/22 09:17:28;;;;;;;8.80;3.55;;;;;;;19.57;71.14;101262.84;4862308;29;20052;-84
2021/07/22 09:19:53;;;;;;;8.95;3.65;;;;;;;19.46;69.96;101263.31;4845557;29;20120;-85
2021/07/22 09:22:36;;;;;;;7.68;3.72;;;;;;;19.47;71.41;101263.25;4862468;29;20432;-84
2021/07/22 09:25:03;;;;;;;7.53;3.60;;;;;;;19.92;69.99;101258.63;4862603;29;20026;-84
2021/07/22 09:27:33;;;;;;;8.30;4.13;;;;;;;20.03;70.08;101258.16;4862032;29;20034;-84
2021/07/22 09:29:59;;;;;;;10.30;3.70;;;;;;;20.20;68.82;101264.34;4845579;29;20049;-85
2021/07/22 09:32:32;;;;;;;7.50;3.63;;;;;;;20.18;65.99;101265.34;4862010;29;20033;-85
2021/07/22 09:35:05;;;;;;;9.07;3.83;;;;;;;20.55;67.40;101256.53;4862008;29;20491;-85
2021/07/22 09:37:30;;;;;;;8.30;3.53;;;;;;;20.09;68.41;101260.50;4845565;29;20438;-85
2021/07/22 09:39:56;;;;;;;8.10;3.33;;;;;;;19.77;69.97;101260.19;4845250;29;20034;-85
2021/07/22 09:42:21;;;;;;;7.40;3.50;;;;;;;19.61;70.23;101261.75;4845280;29;20062;-85
2021/07/22 09:44:46;;;;;;;7.63;3.17;;;;;;;19.38;72.00;101265.44;4845542;29;20040;-85
2021/07/22 09:47:12;;;;;;;6.85;3.30;;;;;;;19.38;71.77;101263.66;4845253;29;20021;-85
2021/07/22 09:49:42;;;;;;;6.80;3.05;;;;;;;19.39;71.34;101264.50;4845216;29;20040;-84
2021/07/22 09:52:22;;;;;;;7.20;3.95;;;;;;;19.44;70.08;101263.38;4845166;29;20022;-84
2021/07/22 09:54:47;;;;;;;9.05;3.90;;;;;;;18.86;71.71;101258.81;4861676;29;20506;-85
2021/07/22 09:57:20;;;;;;;6.78;3.70;;;;;;;18.77;71.63;101264.47;4845924;29;20033;-85
2021/07/22 09:59:48;;;;;;;8.68;3.42;;;;;;;18.84;72.49;101268.56;4844988;29;20075;-85
2021/07/22 10:02:21;;;;;;;7.28;3.60;;;;;;;18.59;73.65;101267.81;4861480;29;20033;-84
2021/07/22 10:04:51;;;;;;;8.93;3.63;;;;;;;18.77;72.94;101276.75;4861602;29;20112;-84
2021/07/22 10:07:19;;;;;;;6.90;3.10;;;;;;;19.64;69.26;101266.88;4844930;29;20050;-84
2021/07/22 10:09:49;;;;;;;9.65;3.50;;;;;;;20.26;66.38;101263.19;4845610;29;20478;-84
2021/07/22 10:12:25;;;;;;;8.25;3.67;;;;;;;20.49;65.32;101259.44;4844935;29;20045;-85
2021/07/22 10:14:54;;;;;;;9.35;3.70;;;;;;;20.83;63.88;101255.19;4845287;29;20411;-85
2021/07/22 10:17:23;;;;;;;6.72;3.33;;;;;;;20.58;64.50;101258.19;4845078;29;20025;-85
2021/07/22 10:19:49;;;;;;;7.45;3.30;;;;;;;20.17;65.03;101267.13;4861360;29;20398;-85
2021/07/22 10:22:15;;;;;;;6.70;3.60;;;;;;;19.23;65.42;101259.03;4844151;29;20025;-85
2021/07/22 10:24:40;;;;;;;12.95;3.50;;;;;;;19.55;68.12;101258.50;4845023;29;20029;-85
2021/07/22 10:27:07;;;;;;;7.47;3.40;;;;;;;19.39;69.05;101256.59;4861416;29;20045;-86
2021/07/22 10:29:34;;;;;;;8.40;3.05;;;;;;;19.41;69.13;101258.25;4861379;29;20029;-85
2021/07/22 10:32:01;;;;;;;8.25;3.28;;;;;;;19.64;69.55;101256.38;4845020;29;20056;-85
2021/07/22 10:34:28;;;;;;;6.93;3.13;;;;;;;19.61;70.12;101252.13;4844838;29;20108;-85
2021/07/22 10:36:54;;;;;;;9.77;3.90;;;;;;;19.79;67.38;101255.69;4844941;29;20443;-85
2021/07/22 10:39:57;;;;;;;7.43;3.67;;;;;;;19.51;68.86;101249.00;4844622;29;20037;-85
2021/07/22 10:42:48;;;;;;;6.78;3.20;;;;;;;19.43;70.45;101251.16;4844608;29;20040;-85
2021/07/22 10:45:19;;;;;;;6.47;3.10;;;;;;;19.07;71.97;101251.81;4844920;29;20233;-85
2021/07/22 10:48:00;;;;;;;6.63;2.90;;;;;;;19.02;69.01;101243.25;4844843;29;20033;-85
2021/07/22 10:50:38;;;;;;;7.25;3.30;;;;;;;19.77;67.69;101245.25;4845041;29;20494;-85
2021/07/22 10:53:04;;;;;;;10.23;4.38;;;;;;;19.85;66.64;101252.78;4844880;29;20067;-85
2021/07/22 10:55:45;;;;;;;6.20;3.05;;;;;;;19.77;68.30;101253.16;4844767;29;20057;-85
2021/07/22 10:58:23;;;;;;;6.90;3.47;;;;;;;19.68;67.64;101250.09;4844781;29;20120;-85
2021/07/22 11:00:48;;;;;;;9.30;4.10;;;;;;;20.64;66.15;101231.53;4844570;29;20029;-85
2021/07/22 11:03:33;;;;;;;8.23;3.83;;;;;;;20.90;64.08;101235.47;4866687;24;20057;-86
2021/07/22 11:06:06;;;;;;;9.65;3.47;;;;;;;20.50;64.77;101233.94;4844297;29;20283;-86
2021/07/22 11:08:40;;;;;;;6.70;3.60;;;;;;;20.35;66.90;101231.16;4860918;29;20483;-85
2021/07/22 11:11:09;;;;;;;8.05;4.30;;;;;;;20.05;63.76;101236.09;4861084;29;20064;-86